createdAt,value
2019-01-29T00:00:58.275Z,3.03
2019-01-29T00:03:28.293Z,2.73
2019-01-29T00:05:58.262Z,3.57
2019-01-29T00:08:28.293Z,4.77
2019-01-29T00:10:58.352Z,4.13
2019-01-29T00:13:28.454Z,5.20
2019-01-29T00:15:58.477Z,4.80
2019-01-29T00:18:28.541Z,4.77
2019-01-29T00:20:58.638Z,2.80
2019-01-29T00:23:28.650Z,4.03
2019-01-29T00:25:58.638Z,4.37
2019-01-29T00:28:28.631Z,3.17
2019-01-29T00:30:58.730Z,6.60
2019-01-29T00:33:28.817Z,3.77
2019-01-29T00:35:58.836Z,3.57
2019-01-29T00:38:28.813Z,3.80
2019-01-29T00:40:58.872Z,5.03
2019-01-29T00:43:28.856Z,5.97
2019-01-29T00:45:58.890Z,3.50
2019-01-29T00:48:28.904Z,5.47
2019-01-29T00:50:58.924Z,4.13
2019-01-29T00:53:28.911Z,2.83
2019-01-29T00:55:58.892Z,8.00
2019-01-29T00:58:28.928Z,10.13
2019-01-29T01:00:58.906Z,7.40
2019-01-29T01:03:28.930Z,4.23
2019-01-29T01:05:58.924Z,5.43
2019-01-29T01:08:29.180Z,5.03
2019-01-29T01:10:59.264Z,5.90
2019-01-29T01:13:29.320Z,6.07
2019-01-29T01:15:59.405Z,4.03
2019-01-29T01:18:29.482Z,17.43
2019-01-29T01:20:59.557Z,4.30
2019-01-29T01:23:29.557Z,9.60
2019-01-29T01:25:59.542Z,4.60
2019-01-29T01:28:29.546Z,8.20
2019-01-29T01:30:59.615Z,5.30
2019-01-29T01:33:29.704Z,5.27
2019-01-29T01:35:59.700Z,6.53
2019-01-29T01:38:29.795Z,3.83
2019-01-29T01:40:59.837Z,2.80
2019-01-29T01:43:30.752Z,4.33
2019-01-29T01:46:00.741Z,6.60
2019-01-29T01:48:30.774Z,2.93
2019-01-29T01:51:00.768Z,8.50
2019-01-29T01:53:30.789Z,4.63
2019-01-29T01:56:00.838Z,3.97
2019-01-29T01:58:30.841Z,2.30
2019-01-29T02:01:00.857Z,5.90
2019-01-29T02:03:30.856Z,4.97
2019-01-29T02:06:00.922Z,5.63
2019-01-29T02:08:34.086Z,2.47
2019-01-29T02:11:10.150Z,8.10
2019-01-29T02:13:40.152Z,2.90
2019-01-29T02:16:10.178Z,4.27
2019-01-29T02:18:40.169Z,4.07
2019-01-29T02:21:10.188Z,16.47
2019-01-29T02:23:40.180Z,2.53
2019-01-29T02:26:10.176Z,6.17
2019-01-29T02:28:40.228Z,5.30
2019-01-29T02:31:10.232Z,3.20
2019-01-29T02:33:40.194Z,8.80
2019-01-29T02:36:10.217Z,3.20
2019-01-29T02:38:40.190Z,5.00
2019-01-29T02:41:10.224Z,7.70
2019-01-29T02:43:40.212Z,9.00
2019-01-29T02:46:10.264Z,2.73
2019-01-29T02:48:40.244Z,2.47
2019-01-29T02:51:10.288Z,5.83
2019-01-29T02:53:40.286Z,3.47
2019-01-29T02:56:10.263Z,2.93
2019-01-29T02:58:40.292Z,4.77
2019-01-29T03:01:10.326Z,3.30
2019-01-29T03:03:40.345Z,5.83
2019-01-29T03:06:10.328Z,2.70
2019-01-29T03:08:40.335Z,4.03
2019-01-29T03:11:10.310Z,3.27
2019-01-29T03:13:40.320Z,16.70
2019-01-29T03:16:10.308Z,4.43
2019-01-29T03:18:40.321Z,3.67
2019-01-29T03:21:10.306Z,4.63
2019-01-29T03:23:40.312Z,2.93
2019-01-29T03:26:10.301Z,4.57
2019-01-29T03:28:40.327Z,3.93
2019-01-29T03:31:10.326Z,8.27
2019-01-29T03:33:40.322Z,5.57
2019-01-29T03:36:10.337Z,6.23
2019-01-29T03:38:40.336Z,9.10
2019-01-29T03:41:10.352Z,4.70
2019-01-29T03:43:40.342Z,8.23
2019-01-29T03:46:10.357Z,3.47
2019-01-29T03:48:40.344Z,6.03
2019-01-29T03:51:10.397Z,4.90
2019-01-29T03:53:40.370Z,5.97
2019-01-29T03:56:10.376Z,3.53
2019-01-29T03:58:40.382Z,4.40
2019-01-29T04:01:10.400Z,9.83
2019-01-29T04:03:40.375Z,3.30
2019-01-29T04:06:10.387Z,4.33
2019-01-29T04:08:40.379Z,5.27
2019-01-29T04:11:10.428Z,6.50
2019-01-29T04:13:44.769Z,3.10
2019-01-29T04:16:19.832Z,6.97
2019-01-29T04:18:52.093Z,3.27
2019-01-29T04:21:26.290Z,4.37
2019-01-29T04:24:00.929Z,3.60
2019-01-29T04:26:35.587Z,4.87
2019-01-29T04:29:12.247Z,5.00
2019-01-29T04:31:42.875Z,6.60
2019-01-29T04:34:18.715Z,4.27
2019-01-29T04:36:48.860Z,8.33
2019-01-29T04:39:18.880Z,5.20
2019-01-29T04:41:59.073Z,2.97
2019-01-29T04:44:29.229Z,2.27
2019-01-29T04:46:59.238Z,8.33
2019-01-29T04:49:29.240Z,3.37
2019-01-29T04:51:59.239Z,4.00
2019-01-29T04:54:29.229Z,7.83
2019-01-29T04:56:59.249Z,2.60
2019-01-29T04:59:29.265Z,5.07
2019-01-29T05:01:59.293Z,3.27
2019-01-29T05:04:29.374Z,9.80
2019-01-29T05:06:59.384Z,2.40
2019-01-29T05:09:29.385Z,4.17
2019-01-29T05:11:59.389Z,3.63
2019-01-29T05:14:29.371Z,2.50
2019-01-29T05:16:59.372Z,3.27
2019-01-29T05:19:29.365Z,2.10
2019-01-29T05:21:59.410Z,2.30
2019-01-29T05:24:29.423Z,2.07
2019-01-29T05:26:59.441Z,2.83
2019-01-29T05:29:29.537Z,6.67
2019-01-29T05:31:59.532Z,6.57
2019-01-29T05:34:29.531Z,5.07
2019-01-29T05:36:59.560Z,5.73
2019-01-29T05:39:29.571Z,4.70
2019-01-29T05:41:59.544Z,2.73
2019-01-29T05:44:29.579Z,5.33
2019-01-29T05:46:59.589Z,4.23
2019-01-29T05:49:29.602Z,7.07
2019-01-29T05:51:59.649Z,6.73
2019-01-29T05:54:29.653Z,2.67
2019-01-29T05:56:59.689Z,7.00
2019-01-29T05:59:31.403Z,3.97
2019-01-29T06:02:02.381Z,5.03
2019-01-29T06:04:39.714Z,7.70
2019-01-29T06:07:09.727Z,4.00
2019-01-29T06:09:39.725Z,3.40
2019-01-29T06:12:09.731Z,4.90
2019-01-29T06:14:39.715Z,3.40
2019-01-29T06:17:09.739Z,5.07
2019-01-29T06:19:39.731Z,8.90
2019-01-29T06:22:09.738Z,5.67
2019-01-29T06:24:39.720Z,9.07
2019-01-29T06:27:09.744Z,4.00
2019-01-29T06:29:39.847Z,5.30
2019-01-29T06:32:09.886Z,9.10
2019-01-29T06:34:39.893Z,3.77
2019-01-29T06:37:09.911Z,2.07
2019-01-29T06:39:39.912Z,7.40
2019-01-29T06:42:09.931Z,1.63
2019-01-29T06:44:39.933Z,3.63
2019-01-29T06:47:10.087Z,2.93
2019-01-29T06:49:40.070Z,3.57
2019-01-29T06:52:10.073Z,2.90
2019-01-29T06:54:40.103Z,7.30
2019-01-29T06:57:10.163Z,8.13
2019-01-29T06:59:40.179Z,7.67
2019-01-29T07:02:10.228Z,7.63
2019-01-29T07:04:40.202Z,5.83
2019-01-29T07:07:10.268Z,5.03
2019-01-29T07:09:40.270Z,3.83
2019-01-29T07:12:10.426Z,4.30
2019-01-29T07:14:40.452Z,5.50
2019-01-29T07:17:29.583Z,4.43
2019-01-29T07:20:02.519Z,3.53
2019-01-29T07:22:32.608Z,7.73
2019-01-29T07:25:02.673Z,11.07
2019-01-29T07:27:32.765Z,5.67
2019-01-29T07:30:02.827Z,4.47
2019-01-29T07:32:32.832Z,7.40
2019-01-29T07:35:02.881Z,4.60
2019-01-29T07:37:32.940Z,4.83
2019-01-29T07:40:03.000Z,12.90
2019-01-29T07:42:33.100Z,8.73
2019-01-29T07:45:03.192Z,9.10
2019-01-29T07:47:33.190Z,6.07
2019-01-29T07:50:03.332Z,8.63
2019-01-29T07:52:33.328Z,6.70
2019-01-29T07:55:10.770Z,10.03
2019-01-29T07:57:40.808Z,12.10
2019-01-29T08:00:11.488Z,5.10
2019-01-29T08:02:41.576Z,10.30
2019-01-29T08:05:11.680Z,7.17
2019-01-29T08:07:41.720Z,6.03
2019-01-29T08:10:11.758Z,8.60
2019-01-29T08:12:42.740Z,7.57
2019-01-29T08:15:12.940Z,5.63
2019-01-29T08:17:42.950Z,7.77
2019-01-29T08:20:13.022Z,5.70
2019-01-29T08:22:43.056Z,6.50
2019-01-29T08:25:13.102Z,8.20
2019-01-29T08:27:43.408Z,9.17
2019-01-29T08:30:13.492Z,5.83
2019-01-29T08:32:43.573Z,4.67
2019-01-29T08:35:13.696Z,12.43
2019-01-29T08:37:43.811Z,5.60
2019-01-29T08:40:13.974Z,7.83
2019-01-29T08:42:44.099Z,5.40
2019-01-29T08:45:14.150Z,6.70
2019-01-29T08:47:44.258Z,7.33
2019-01-29T08:50:17.302Z,7.23
2019-01-29T08:52:47.367Z,6.93
2019-01-29T08:55:17.384Z,6.23
2019-01-29T08:57:47.442Z,6.70
2019-01-29T09:00:17.668Z,5.03
2019-01-29T09:02:48.096Z,8.23
2019-01-29T09:05:18.228Z,6.60
2019-01-29T09:07:48.397Z,9.67
2019-01-29T09:10:18.636Z,11.20
2019-01-29T09:12:48.802Z,8.33
2019-01-29T09:15:18.928Z,8.37
2019-01-29T09:17:49.350Z,9.13
2019-01-29T09:20:19.566Z,9.67
2019-01-29T09:22:49.795Z,7.43
2019-01-29T09:25:22.532Z,9.23
2019-01-29T09:27:51.629Z,11.33
2019-01-29T09:30:22.265Z,10.00
2019-01-29T09:32:52.314Z,10.20
2019-01-29T09:35:22.437Z,10.80
2019-01-29T09:37:52.486Z,7.17
2019-01-29T09:40:22.573Z,10.47
2019-01-29T09:42:52.676Z,9.73
2019-01-29T09:45:22.866Z,12.00
2019-01-29T09:47:52.972Z,12.87
2019-01-29T09:50:23.611Z,14.47
2019-01-29T09:52:55.994Z,18.70
2019-01-29T09:55:29.504Z,12.00
2019-01-29T09:57:58.055Z,9.23
2019-01-29T10:00:30.520Z,7.50
2019-01-29T10:03:02.141Z,15.93
2019-01-29T10:05:32.857Z,7.87
2019-01-29T10:08:07.203Z,10.63
2019-01-29T10:10:40.175Z,8.50
2019-01-29T10:13:10.603Z,12.93
2019-01-29T10:15:40.734Z,13.07
2019-01-29T10:18:10.970Z,8.47
2019-01-29T10:20:41.018Z,11.17
2019-01-29T10:23:11.142Z,8.00
2019-01-29T10:25:41.224Z,9.03
2019-01-29T10:28:11.274Z,6.43
2019-01-29T10:30:41.907Z,10.07
2019-01-29T10:33:12.232Z,11.50
2019-01-29T10:35:42.320Z,10.90
2019-01-29T10:38:12.404Z,9.23
2019-01-29T10:40:42.768Z,7.57
2019-01-29T10:43:12.867Z,7.73
2019-01-29T10:45:42.927Z,7.47
2019-01-29T10:48:12.918Z,8.07
2019-01-29T10:50:43.027Z,6.00
2019-01-29T10:53:13.071Z,6.37
2019-01-29T10:55:47.316Z,6.57
2019-01-29T10:58:14.924Z,11.30
2019-01-29T11:00:45.621Z,7.93
2019-01-29T11:03:15.647Z,8.47
2019-01-29T11:05:45.725Z,10.83
2019-01-29T11:08:15.733Z,7.30
2019-01-29T11:10:45.792Z,6.43
2019-01-29T11:13:15.809Z,9.00
2019-01-29T11:15:45.861Z,14.67
2019-01-29T11:18:16.541Z,7.43
2019-01-29T11:20:46.683Z,14.00
2019-01-29T11:23:17.249Z,9.67
2019-01-29T11:25:55.411Z,10.03
2019-01-29T11:28:19.169Z,13.20
2019-01-29T11:30:49.439Z,9.23
2019-01-29T11:33:22.389Z,11.83
2019-01-29T11:35:52.473Z,5.87
2019-01-29T11:38:22.524Z,6.27
2019-01-29T11:40:52.663Z,8.23
2019-01-29T11:43:22.781Z,8.13
2019-01-29T11:45:53.995Z,6.67
2019-01-29T11:48:24.019Z,5.30
2019-01-29T11:50:54.437Z,9.47
2019-01-29T11:53:24.465Z,4.07
2019-01-29T11:55:54.518Z,9.30
2019-01-29T11:58:24.577Z,4.70
2019-01-29T12:00:58.959Z,6.17
2019-01-29T12:03:31.163Z,5.87
2019-01-29T12:06:01.195Z,5.40
2019-01-29T12:08:31.269Z,3.33
2019-01-29T12:11:01.346Z,4.87
2019-01-29T12:13:31.519Z,4.00
2019-01-29T12:16:01.563Z,4.13
2019-01-29T12:18:32.729Z,7.40
2019-01-29T12:21:03.218Z,10.00
2019-01-29T12:23:33.368Z,3.60
2019-01-29T12:26:03.481Z,4.30
2019-01-29T12:28:33.559Z,5.93
2019-01-29T12:31:03.775Z,5.10
2019-01-29T12:33:34.142Z,4.20
2019-01-29T12:36:04.355Z,4.43
2019-01-29T12:38:34.496Z,5.07
2019-01-29T12:41:04.630Z,3.57
2019-01-29T12:43:34.682Z,4.53
2019-01-29T12:46:04.855Z,3.77
2019-01-29T12:48:34.884Z,4.13
2019-01-29T12:51:08.818Z,6.50
2019-01-29T12:53:41.482Z,8.03
2019-01-29T12:56:11.617Z,14.53
2019-01-29T12:58:46.687Z,3.77
2019-01-29T13:01:17.015Z,7.00
2019-01-29T13:03:47.243Z,10.00
2019-01-29T13:06:17.324Z,4.47
2019-01-29T13:08:52.934Z,5.80
2019-01-29T13:11:23.077Z,4.33
2019-01-29T13:13:53.190Z,13.00
2019-01-29T13:16:23.352Z,5.20
2019-01-29T13:18:53.455Z,4.33
2019-01-29T13:21:23.533Z,5.90
2019-01-29T13:23:53.569Z,6.10
2019-01-29T13:26:29.854Z,6.27
2019-01-29T13:28:55.477Z,7.80
2019-01-29T13:31:27.415Z,15.03
2019-01-29T13:33:57.584Z,4.97
2019-01-29T13:36:27.914Z,8.03
2019-01-29T13:38:58.038Z,8.93
2019-01-29T13:41:28.222Z,7.83
2019-01-29T13:43:58.256Z,4.07
2019-01-29T13:46:28.373Z,6.30
2019-01-29T13:48:58.430Z,5.90
2019-01-29T13:51:28.565Z,4.03
2019-01-29T13:53:58.682Z,5.77
2019-01-29T13:56:28.786Z,7.53
2019-01-29T13:58:58.884Z,2.97
2019-01-29T14:01:28.968Z,5.63
2019-01-29T14:04:06.064Z,5.73
2019-01-29T14:06:30.884Z,11.40
2019-01-29T14:09:00.939Z,4.80
2019-01-29T14:11:31.062Z,6.53
2019-01-29T14:14:01.104Z,4.30
2019-01-29T14:16:32.786Z,7.30
2019-01-29T14:19:02.937Z,3.43
2019-01-29T14:21:33.018Z,4.87
2019-01-29T14:24:03.156Z,2.53
2019-01-29T14:26:33.215Z,5.03
2019-01-29T14:29:03.292Z,4.77
2019-01-29T14:31:33.318Z,3.73
2019-01-29T14:34:03.500Z,7.63
2019-01-29T14:36:33.636Z,3.37
2019-01-29T14:39:26.110Z,3.23
2019-01-29T14:41:56.209Z,3.43
2019-01-29T14:44:38.874Z,3.90
2019-01-29T14:47:09.004Z,7.17
2019-01-29T14:49:39.128Z,11.60
2019-01-29T14:52:09.267Z,8.43
2019-01-29T14:54:39.458Z,4.13
2019-01-29T14:57:09.467Z,3.63
2019-01-29T14:59:39.614Z,6.83
2019-01-29T15:02:09.767Z,8.00
2019-01-29T15:04:39.856Z,4.83
2019-01-29T15:07:10.508Z,10.93
2019-01-29T15:09:40.847Z,5.53
2019-01-29T15:12:10.923Z,5.33
2019-01-29T15:14:41.048Z,5.77
2019-01-29T15:17:31.577Z,4.30
2019-01-29T15:20:01.625Z,4.07
2019-01-29T15:22:31.668Z,6.47
2019-01-29T15:25:01.849Z,22.13
2019-01-29T15:27:31.853Z,5.83
2019-01-29T15:30:01.934Z,4.87
2019-01-29T15:32:32.063Z,6.27
2019-01-29T15:35:02.514Z,5.73
2019-01-29T15:37:32.590Z,10.80
2019-01-29T15:40:04.231Z,10.17
2019-01-29T15:42:34.372Z,4.70
2019-01-29T15:45:05.157Z,5.23
2019-01-29T15:47:35.314Z,5.93
2019-01-29T15:50:06.502Z,4.53
2019-01-29T15:52:36.658Z,4.40
2019-01-29T15:55:08.357Z,5.80
2019-01-29T15:57:41.068Z,4.27
2019-01-29T16:00:17.773Z,7.07
2019-01-29T16:02:47.818Z,6.07
2019-01-29T16:05:21.256Z,7.67
2019-01-29T16:07:51.267Z,6.97
2019-01-29T16:10:24.249Z,7.83
2019-01-29T16:12:54.393Z,6.47
2019-01-29T16:15:24.885Z,7.47
2019-01-29T16:17:54.971Z,5.93
2019-01-29T16:20:25.917Z,7.07
2019-01-29T16:22:56.032Z,7.23
2019-01-29T16:25:26.542Z,3.77
2019-01-29T16:27:56.640Z,5.83
2019-01-29T16:30:27.433Z,6.47
2019-01-29T16:32:57.449Z,8.30
2019-01-29T16:35:29.776Z,5.13
2019-01-29T16:37:59.841Z,7.33
2019-01-29T16:40:30.257Z,5.73
2019-01-29T16:43:00.330Z,6.23
2019-01-29T16:45:32.110Z,9.03
2019-01-29T16:48:02.437Z,6.13
2019-01-29T16:50:32.567Z,5.53
2019-01-29T16:53:02.930Z,4.97
2019-01-29T16:55:33.014Z,9.60
2019-01-29T16:58:03.063Z,4.47
2019-01-29T17:00:33.199Z,9.17
2019-01-29T17:03:03.409Z,5.87
2019-01-29T17:05:33.481Z,6.90
2019-01-29T17:08:04.289Z,5.70
2019-01-29T17:10:34.373Z,7.00
2019-01-29T17:13:05.640Z,10.10
2019-01-29T17:15:35.881Z,9.40
2019-01-29T17:18:06.309Z,9.07
2019-01-29T17:20:38.125Z,7.20
2019-01-29T17:23:09.153Z,6.60
2019-01-29T17:25:39.236Z,9.10
2019-01-29T17:28:09.295Z,7.17
2019-01-29T17:30:41.341Z,6.70
2019-01-29T17:33:13.375Z,7.07
2019-01-29T17:35:43.448Z,8.47
2019-01-29T17:38:13.509Z,7.63
2019-01-29T17:40:44.139Z,7.83
2019-01-29T17:43:14.277Z,10.73
2019-01-29T17:45:46.039Z,9.87
2019-01-29T17:48:16.100Z,9.40
2019-01-29T17:50:46.279Z,6.83
2019-01-29T17:53:16.429Z,7.87
2019-01-29T17:55:46.672Z,12.33
2019-01-29T17:58:16.813Z,8.30
2019-01-29T18:00:50.247Z,8.77
2019-01-29T18:03:20.419Z,7.07
2019-01-29T18:05:50.446Z,7.87
2019-01-29T18:08:20.514Z,14.43
2019-01-29T18:10:50.612Z,8.07
2019-01-29T18:13:20.693Z,9.00
2019-01-29T18:15:50.705Z,8.33
2019-01-29T18:18:20.803Z,7.00
2019-01-29T18:20:50.881Z,9.50
2019-01-29T18:23:20.924Z,8.27
2019-01-29T18:25:50.993Z,8.83
2019-01-29T18:28:21.142Z,9.67
2019-01-29T18:30:51.195Z,10.03
2019-01-29T18:33:21.231Z,9.20
2019-01-29T18:35:52.037Z,12.57
2019-01-29T18:38:22.095Z,7.77
2019-01-29T18:40:54.690Z,15.67
2019-01-29T18:43:24.739Z,9.43
2019-01-29T18:45:54.781Z,7.83
2019-01-29T18:48:24.936Z,8.47
2019-01-29T18:50:54.962Z,9.47
2019-01-29T18:53:25.044Z,14.30
2019-01-29T18:55:55.063Z,9.37
2019-01-29T18:58:25.107Z,14.53
2019-01-29T19:00:55.175Z,9.10
2019-01-29T19:03:25.199Z,13.13
2019-01-29T19:05:55.252Z,15.03
2019-01-29T19:08:25.370Z,8.97
2019-01-29T19:10:55.370Z,11.00
2019-01-29T19:13:25.424Z,8.87
2019-01-29T19:15:55.448Z,9.50
2019-01-29T19:18:25.508Z,11.53
2019-01-29T19:20:55.515Z,10.67
2019-01-29T19:23:25.963Z,9.13
2019-01-29T19:25:56.100Z,11.47
2019-01-29T19:28:26.189Z,15.73
2019-01-29T19:30:57.599Z,10.27
2019-01-29T19:33:27.705Z,14.97
2019-01-29T19:35:57.791Z,9.43
2019-01-29T19:38:27.827Z,8.93
2019-01-29T19:40:57.876Z,12.00
2019-01-29T19:43:27.986Z,9.03
2019-01-29T19:45:58.076Z,11.03
2019-01-29T19:48:29.838Z,15.67
2019-01-29T19:51:00.011Z,13.37
2019-01-29T19:53:30.064Z,14.37
2019-01-29T19:56:00.097Z,13.70
2019-01-29T19:58:32.334Z,20.67
2019-01-29T20:01:03.412Z,11.87
2019-01-29T20:03:33.453Z,13.43
2019-01-29T20:06:03.436Z,12.23
2019-01-29T20:08:33.466Z,10.67
2019-01-29T20:11:03.532Z,14.53
2019-01-29T20:13:33.562Z,12.07
2019-01-29T20:16:03.622Z,13.27
2019-01-29T20:18:33.632Z,16.33
2019-01-29T20:21:03.666Z,11.30
2019-01-29T20:23:33.670Z,18.73
2019-01-29T20:26:03.694Z,17.73
2019-01-29T20:28:42.258Z,15.30
2019-01-29T20:31:05.680Z,14.70
2019-01-29T20:33:35.754Z,14.33
2019-01-29T20:36:05.762Z,14.87
2019-01-29T20:38:36.055Z,16.47
2019-01-29T20:41:10.506Z,18.47
2019-01-29T20:43:40.596Z,21.83
2019-01-29T20:46:10.678Z,11.43
2019-01-29T20:48:40.723Z,11.83
2019-01-29T20:51:10.805Z,14.33
2019-01-29T20:53:40.850Z,14.63
2019-01-29T20:56:10.913Z,15.40
2019-01-29T20:58:41.085Z,18.73
2019-01-29T21:01:11.274Z,14.80
2019-01-29T21:03:41.293Z,14.80
2019-01-29T21:06:11.454Z,13.63
2019-01-29T21:08:41.482Z,11.43
2019-01-29T21:11:11.550Z,12.17
2019-01-29T21:13:41.708Z,15.47
2019-01-29T21:16:11.843Z,14.20
2019-01-29T21:18:41.884Z,16.27
2019-01-29T21:21:11.932Z,14.27
2019-01-29T21:23:41.906Z,18.60
2019-01-29T21:26:12.018Z,14.17
2019-01-29T21:28:42.035Z,15.83
2019-01-29T21:31:12.146Z,15.37
2019-01-29T21:33:42.129Z,12.73
2019-01-29T21:36:12.256Z,11.50
2019-01-29T21:38:42.303Z,11.37
2019-01-29T21:41:12.415Z,13.70
2019-01-29T21:43:42.422Z,14.40
2019-01-29T21:46:12.476Z,18.67
2019-01-29T21:48:42.482Z,14.20
2019-01-29T21:51:12.625Z,17.23
2019-01-29T21:53:42.669Z,13.07
2019-01-29T21:56:12.690Z,15.33
2019-01-29T21:58:42.978Z,19.67
2019-01-29T22:01:13.137Z,15.50
2019-01-29T22:03:43.191Z,13.67
2019-01-29T22:06:13.189Z,16.57
2019-01-29T22:08:44.072Z,14.00
2019-01-29T22:11:14.069Z,14.07
2019-01-29T22:13:44.082Z,15.33
2019-01-29T22:16:14.353Z,12.40
2019-01-29T22:18:44.376Z,12.07
2019-01-29T22:21:14.391Z,13.80
2019-01-29T22:23:44.417Z,18.83
2019-01-29T22:26:14.446Z,28.10
2019-01-29T22:28:44.482Z,13.97
2019-01-29T22:31:14.483Z,17.97
2019-01-29T22:33:44.516Z,25.07
2019-01-29T22:36:14.580Z,12.53
2019-01-29T22:38:44.578Z,22.17
2019-01-29T22:41:14.578Z,15.70
2019-01-29T22:43:44.688Z,16.50
2019-01-29T22:46:14.695Z,13.40
2019-01-29T22:48:44.690Z,18.23
2019-01-29T22:51:14.709Z,19.77
2019-01-29T22:53:44.812Z,13.10
2019-01-29T22:56:14.835Z,16.37
2019-01-29T22:58:44.914Z,21.80
2019-01-29T23:01:43.197Z,16.83
2019-01-29T23:04:21.493Z,12.73
2019-01-29T23:07:15.143Z,16.13
2019-01-29T23:09:45.396Z,13.70
2019-01-29T23:12:15.435Z,17.00
2019-01-29T23:14:45.548Z,15.93
2019-01-29T23:17:15.586Z,13.87
2019-01-29T23:19:45.610Z,17.37
2019-01-29T23:22:41.843Z,14.77
2019-01-29T23:25:20.636Z,16.80
2019-01-29T23:28:04.458Z,20.87
2019-01-29T23:30:46.381Z,13.93
2019-01-29T23:33:25.642Z,14.00
2019-01-29T23:35:55.733Z,13.83
2019-01-29T23:38:28.055Z,13.20
2019-01-29T23:41:01.501Z,16.17
2019-01-29T23:43:38.901Z,16.53
2019-01-29T23:46:19.264Z,16.10
2019-01-29T23:48:55.729Z,11.10
2019-01-29T23:51:34.368Z,17.87
2019-01-29T23:54:04.404Z,14.53
2019-01-29T23:56:34.439Z,18.77
2019-01-29T23:59:04.685Z,13.17
